West Andover, Ohio
Current Conditions -  °F | °C
As of 10:53 AM on Saturday 25 Oct 2014 (Local Time) from KHZY Reporting Station
Overcast Overcast  
Wind Chill: 56°   Ceiling: 6000
Heat Index: 56°   Visibility: 10mi
Dew Point: 48°   Wind: 9mph
Humidity: 75%   Direction: 210°SSW
Pressure: 29.84"   Gusts: NA
Location:  41.6317°N, 80.577°W
Report Text: KHZY 251453Z AUTO 21008KT 10SM OVC060 13/09 A2984 RMK AO2 SLP107 T01330089 56019
Loading
Personal Weather Stations






























Interactive Weather Map New forecast layout! Learn more

10-Day Weather Forecast

Advertisements
Track Severe Weather on mobile